sensor_id;sensor_type;location;lat;lon;timestamp;pressure;altitude;pressure_sealevel;temperature;humidity
10732;BME280;5417;42.686;23.244;2023-04-28T00:01:26;94479.53;;;8.56;48.60
10732;BME280;5417;42.686;23.244;2023-04-28T00:03:52;94504.78;;;8.65;49.05
10732;BME280;5417;42.686;23.244;2023-04-28T00:09:44;94498.34;;;8.46;49.30
10732;BME280;5417;42.686;23.244;2023-04-28T00:12:15;94510.66;;;8.56;49.45
10732;BME280;5417;42.686;23.244;2023-04-28T00:14:42;94500.66;;;8.62;48.71
10732;BME280;5417;42.686;23.244;2023-04-28T00:17:09;94501.75;;;8.71;49.64
10732;BME280;5417;42.686;23.244;2023-04-28T00:19:36;94512.34;;;8.68;48.29
10732;BME280;5417;42.686;23.244;2023-04-28T00:25:28;94501.31;;;8.53;49.30
10732;BME280;5417;42.686;23.244;2023-04-28T00:27:56;94502.69;;;8.46;49.19
10732;BME280;5417;42.686;23.244;2023-04-28T00:30:23;94514.22;;;8.42;49.54
10732;BME280;5417;42.686;23.244;2023-04-28T00:32:50;94501.16;;;8.31;50.14
10732;BME280;5417;42.686;23.244;2023-04-28T00:35:17;94506.47;;;8.42;49.94
10732;BME280;5417;42.686;23.244;2023-04-28T00:38:39;94514.00;;;8.45;49.35
10732;BME280;5417;42.686;23.244;2023-04-28T00:40:58;94506.56;;;8.40;50.00
10732;BME280;5417;42.686;23.244;2023-04-28T00:43:26;94512.34;;;8.44;47.77
10732;BME280;5417;42.686;23.244;2023-04-28T00:45:53;94504.91;;;8.27;50.28
10732;BME280;5417;42.686;23.244;2023-04-28T00:52:17;94529.28;;;8.37;50.69
10732;BME280;5417;42.686;23.244;2023-04-28T00:55:08;94524.69;;;8.28;49.38
10732;BME280;5417;42.686;23.244;2023-04-28T00:57:36;94522.56;;;8.34;49.88
10732;BME280;5417;42.686;23.244;2023-04-28T01:00:07;94521.22;;;8.16;51.60
10732;BME280;5417;42.686;23.244;2023-04-28T01:02:36;94524.53;;;8.18;51.11
10732;BME280;5417;42.686;23.244;2023-04-28T01:05:03;94518.72;;;8.14;49.12
10732;BME280;5417;42.686;23.244;2023-04-28T01:07:30;94543.91;;;8.25;50.48
10732;BME280;5417;42.686;23.244;2023-04-28T01:09:59;94535.09;;;8.15;50.87
10732;BME280;5417;42.686;23.244;2023-04-28T01:12:26;94531.50;;;8.05;51.16
10732;BME280;5417;42.686;23.244;2023-04-28T01:18:04;94534.91;;;8.05;52.75
10732;BME280;5417;42.686;23.244;2023-04-28T01:20:31;94524.25;;;7.97;52.22
10732;BME280;5417;42.686;23.244;2023-04-28T01:26:24;94533.78;;;7.97;53.26
10732;BME280;5417;42.686;23.244;2023-04-28T01:30:17;94532.34;;;7.93;52.56
10732;BME280;5417;42.686;23.244;2023-04-28T01:32:19;94531.94;;;7.86;52.00
10732;BME280;5417;42.686;23.244;2023-04-28T01:34:46;94535.25;;;7.88;52.79
10732;BME280;5417;42.686;23.244;2023-04-28T01:44:03;94526.75;;;7.73;52.48
10732;BME280;5417;42.686;23.244;2023-04-28T01:47:09;94546.22;;;7.79;52.26
10732;BME280;5417;42.686;23.244;2023-04-28T01:49:36;94539.50;;;7.76;52.09
10732;BME280;5417;42.686;23.244;2023-04-28T01:52:57;94549.84;;;7.76;53.17
10732;BME280;5417;42.686;23.244;2023-04-28T01:56:08;94547.69;;;7.70;52.76
10732;BME280;5417;42.686;23.244;2023-04-28T01:58:31;94540.84;;;7.69;53.03
10732;BME280;5417;42.686;23.244;2023-04-28T02:01:17;94543.44;;;7.69;52.97
10732;BME280;5417;42.686;23.244;2023-04-28T02:03:43;94534.53;;;7.60;53.62
10732;BME280;5417;42.686;23.244;2023-04-28T02:06:10;94536.28;;;7.60;53.53
10732;BME280;5417;42.686;23.244;2023-04-28T02:08:37;94551.41;;;7.66;53.64
10732;BME280;5417;42.686;23.244;2023-04-28T02:11:06;94551.31;;;7.68;53.47
10732;BME280;5417;42.686;23.244;2023-04-28T02:13:34;94555.97;;;7.63;53.34
10732;BME280;5417;42.686;23.244;2023-04-28T02:16:01;94549.97;;;7.62;55.05
10732;BME280;5417;42.686;23.244;2023-04-28T02:18:29;94551.63;;;7.63;53.89
10732;BME280;5417;42.686;23.244;2023-04-28T02:20:56;94544.47;;;7.54;53.24
10732;BME280;5417;42.686;23.244;2023-04-28T02:24:18;94558.97;;;7.56;53.52
10732;BME280;5417;42.686;23.244;2023-04-28T02:26:39;94554.94;;;7.52;53.47
10732;BME280;5417;42.686;23.244;2023-04-28T02:58:53;94580.94;;;7.64;52.10
10732;BME280;5417;42.686;23.244;2023-04-28T03:02:13;94586.13;;;7.64;52.59
10732;BME280;5417;42.686;23.244;2023-04-28T03:04:32;94581.25;;;7.59;52.08
10732;BME280;5417;42.686;23.244;2023-04-28T03:10:07;94590.78;;;7.58;52.35
10732;BME280;5417;42.686;23.244;2023-04-28T03:12:34;94574.22;;;7.48;51.21
10732;BME280;5417;42.686;23.244;2023-04-28T03:15:03;94581.34;;;7.57;50.58
10732;BME280;5417;42.686;23.244;2023-04-28T03:17:32;94591.00;;;7.55;50.53
10732;BME280;5417;42.686;23.244;2023-04-28T03:20:00;94582.19;;;7.58;50.61
10732;BME280;5417;42.686;23.244;2023-04-28T03:22:27;94594.00;;;7.75;49.81
10732;BME280;5417;42.686;23.244;2023-04-28T03:24:56;94591.63;;;7.72;49.86
10732;BME280;5417;42.686;23.244;2023-04-28T03:27:23;94597.84;;;7.69;49.37
10732;BME280;5417;42.686;23.244;2023-04-28T03:29:49;94614.31;;;7.68;50.33
10732;BME280;5417;42.686;23.244;2023-04-28T03:32:18;94615.25;;;7.67;50.29
10732;BME280;5417;42.686;23.244;2023-04-28T03:36:19;94619.81;;;7.76;49.69
10732;BME280;5417;42.686;23.244;2023-04-28T03:38:12;94628.13;;;7.81;49.32
10732;BME280;5417;42.686;23.244;2023-04-28T03:40:40;94621.91;;;7.84;49.46
10732;BME280;5417;42.686;23.244;2023-04-28T03:43:06;94627.19;;;7.95;48.83
10732;BME280;5417;42.686;23.244;2023-04-28T03:45:33;94630.31;;;8.00;47.88
10732;BME280;5417;42.686;23.244;2023-04-28T03:48:06;94628.44;;;8.02;47.99
10732;BME280;5417;42.686;23.244;2023-04-28T03:50:33;94630.72;;;7.94;48.73
10732;BME280;5417;42.686;23.244;2023-04-28T03:53:00;94625.84;;;7.89;48.12
10732;BME280;5417;42.686;23.244;2023-04-28T03:55:27;94633.53;;;7.91;47.34
10732;BME280;5417;42.686;23.244;2023-04-28T03:57:54;94643.59;;;7.83;48.34
10732;BME280;5417;42.686;23.244;2023-04-28T04:26:06;94646.66;;;10.19;43.57
10732;BME280;5417;42.686;23.244;2023-04-28T04:28:33;94649.28;;;11.40;41.20
10732;BME280;5417;42.686;23.244;2023-04-28T04:37:56;94639.63;;;15.71;33.49
10732;BME280;5417;42.686;23.244;2023-04-28T04:40:23;94637.31;;;16.56;32.43
10732;BME280;5417;42.686;23.244;2023-04-28T04:42:51;94637.38;;;16.90;31.03
10732;BME280;5417;42.686;23.244;2023-04-28T04:45:42;94643.47;;;16.90;30.78
10732;BME280;5417;42.686;23.244;2023-04-28T04:51:38;94650.38;;;16.91;31.65
10732;BME280;5417;42.686;23.244;2023-04-28T04:54:19;94647.81;;;17.08;32.18
10732;BME280;5417;42.686;23.244;2023-04-28T04:56:47;94658.28;;;17.33;31.05
10732;BME280;5417;42.686;23.244;2023-04-28T04:59:33;94658.56;;;16.88;31.08
10732;BME280;5417;42.686;23.244;2023-04-28T05:02:54;94657.16;;;17.52;30.24
10732;BME280;5417;42.686;23.244;2023-04-28T05:05:14;94666.56;;;17.55;29.70
10732;BME280;5417;42.686;23.244;2023-04-28T05:07:41;94667.34;;;17.05;30.35
10732;BME280;5417;42.686;23.244;2023-04-28T05:10:09;94659.16;;;17.50;30.18
10732;BME280;5417;42.686;23.244;2023-04-28T05:13:31;94660.44;;;18.29;29.70
10732;BME280;5417;42.686;23.244;2023-04-28T05:16:16;94669.38;;;17.61;29.86
10732;BME280;5417;42.686;23.244;2023-04-28T05:18:43;94664.56;;;17.49;30.44
10732;BME280;5417;42.686;23.244;2023-04-28T05:21:09;94678.72;;;16.62;31.00
10732;BME280;5417;42.686;23.244;2023-04-28T05:28:13;94687.09;;;13.91;35.09
10732;BME280;5417;42.686;23.244;2023-04-28T05:30:32;94674.84;;;13.72;35.80
10732;BME280;5417;42.686;23.244;2023-04-28T05:33:00;94678.97;;;14.04;35.89
10732;BME280;5417;42.686;23.244;2023-04-28T05:35:31;94673.81;;;14.97;34.95
10732;BME280;5417;42.686;23.244;2023-04-28T05:37:58;94676.66;;;15.41;33.72
10732;BME280;5417;42.686;23.244;2023-04-28T05:40:25;94661.03;;;14.47;34.63
10732;BME280;5417;42.686;23.244;2023-04-28T05:42:53;94676.75;;;14.18;35.01
10732;BME280;5417;42.686;23.244;2023-04-28T05:46:13;94668.22;;;15.20;35.06
10732;BME280;5417;42.686;23.244;2023-04-28T05:48:35;94675.06;;;14.37;35.42
10732;BME280;5417;42.686;23.244;2023-04-28T05:54:55;94675.13;;;13.69;36.85
10732;BME280;5417;42.686;23.244;2023-04-28T05:57:42;94683.59;;;13.33;37.26
10732;BME280;5417;42.686;23.244;2023-04-28T06:00:11;94691.19;;;12.75;37.72
10732;BME280;5417;42.686;23.244;2023-04-28T06:02:38;94685.44;;;12.29;39.19
10732;BME280;5417;42.686;23.244;2023-04-28T06:05:07;94690.06;;;11.73;39.54
10732;BME280;5417;42.686;23.244;2023-04-28T06:07:34;94687.50;;;11.07;41.46
10732;BME280;5417;42.686;23.244;2023-04-28T06:10:01;94691.16;;;11.16;42.00
10732;BME280;5417;42.686;23.244;2023-04-28T06:12:30;94689.28;;;11.18;41.11
10732;BME280;5417;42.686;23.244;2023-04-28T06:15:56;94692.38;;;10.79;41.10
10732;BME280;5417;42.686;23.244;2023-04-28T06:18:08;94701.50;;;10.62;41.54
10732;BME280;5417;42.686;23.244;2023-04-28T06:20:36;94681.00;;;10.80;41.69
10732;BME280;5417;42.686;23.244;2023-04-28T06:23:03;94693.56;;;10.74;41.86
10732;BME280;5417;42.686;23.244;2023-04-28T06:29:21;94697.41;;;11.36;41.51
10732;BME280;5417;42.686;23.244;2023-04-28T06:56:59;94685.41;;;11.56;39.45
10732;BME280;5417;42.686;23.244;2023-04-28T06:59:28;94687.00;;;11.68;39.54
10732;BME280;5417;42.686;23.244;2023-04-28T07:05:48;94683.94;;;11.63;39.50
10732;BME280;5417;42.686;23.244;2023-04-28T07:09:23;94686.31;;;11.66;39.66
10732;BME280;5417;42.686;23.244;2023-04-28T07:11:42;94682.63;;;11.68;40.13
10732;BME280;5417;42.686;23.244;2023-04-28T07:14:15;94681.25;;;11.53;40.94
10732;BME280;5417;42.686;23.244;2023-04-28T07:17:36;94685.03;;;11.60;40.84
10732;BME280;5417;42.686;23.244;2023-04-28T07:19:56;94685.09;;;11.70;40.87
10732;BME280;5417;42.686;23.244;2023-04-28T07:22:28;94685.59;;;11.96;39.33
10732;BME280;5417;42.686;23.244;2023-04-28T07:25:10;94687.16;;;12.19;39.20
10732;BME280;5417;42.686;23.244;2023-04-28T07:27:37;94681.13;;;12.19;38.82
10732;BME280;5417;42.686;23.244;2023-04-28T07:30:07;94666.34;;;12.29;38.29
10732;BME280;5417;42.686;23.244;2023-04-28T07:32:33;94665.56;;;12.38;39.24
10732;BME280;5417;42.686;23.244;2023-04-28T07:36:00;94666.59;;;12.26;39.13
10732;BME280;5417;42.686;23.244;2023-04-28T07:38:26;94670.91;;;12.37;39.33
10732;BME280;5417;42.686;23.244;2023-04-28T07:40:53;94674.91;;;12.61;39.07
10732;BME280;5417;42.686;23.244;2023-04-28T07:52:50;94663.78;;;13.00;39.06
10732;BME280;5417;42.686;23.244;2023-04-28T07:55:17;94668.88;;;13.41;36.95
10732;BME280;5417;42.686;23.244;2023-04-28T07:57:44;94660.72;;;13.25;36.94
10732;BME280;5417;42.686;23.244;2023-04-28T08:00:12;94660.56;;;13.17;36.08
10732;BME280;5417;42.686;23.244;2023-04-28T08:02:39;94651.66;;;13.29;36.72
10732;BME280;5417;42.686;23.244;2023-04-28T08:24:32;94665.91;;;13.15;36.75
10732;BME280;5417;42.686;23.244;2023-04-28T08:30:22;94659.91;;;13.24;37.55
10732;BME280;5417;42.686;23.244;2023-04-28T08:39:34;94653.56;;;13.27;36.30
10732;BME280;5417;42.686;23.244;2023-04-28T08:42:02;94656.19;;;13.27;37.25
10732;BME280;5417;42.686;23.244;2023-04-28T08:44:54;94652.22;;;13.52;36.86
10732;BME280;5417;42.686;23.244;2023-04-28T08:47:47;94652.50;;;13.49;34.89
10732;BME280;5417;42.686;23.244;2023-04-28T08:50:14;94643.13;;;13.46;37.26
10732;BME280;5417;42.686;23.244;2023-04-28T08:52:46;94640.38;;;13.48;37.54
10732;BME280;5417;42.686;23.244;2023-04-28T08:55:32;94644.97;;;13.55;36.30
10732;BME280;5417;42.686;23.244;2023-04-28T08:58:48;94643.00;;;13.96;37.18
10732;BME280;5417;42.686;23.244;2023-04-28T09:01:17;94633.03;;;14.38;35.52
10732;BME280;5417;42.686;23.244;2023-04-28T09:07:22;94644.25;;;14.21;34.80
10732;BME280;5417;42.686;23.244;2023-04-28T09:13:25;94625.41;;;13.88;36.25
10732;BME280;5417;42.686;23.244;2023-04-28T09:15:58;94621.13;;;13.87;37.06
10732;BME280;5417;42.686;23.244;2023-04-28T09:18:27;94615.06;;;13.87;36.24
10732;BME280;5417;42.686;23.244;2023-04-28T09:21:44;94623.75;;;13.68;35.72
10732;BME280;5417;42.686;23.244;2023-04-28T09:24:25;94614.41;;;13.66;34.84
10732;BME280;5417;42.686;23.244;2023-04-28T09:26:51;94623.34;;;13.82;34.31
10732;BME280;5417;42.686;23.244;2023-04-28T09:40:07;94605.16;;;13.90;34.76
10732;BME280;5417;42.686;23.244;2023-04-28T09:42:35;94599.50;;;13.95;36.00
10732;BME280;5417;42.686;23.244;2023-04-28T09:45:05;94598.91;;;14.20;35.86
10732;BME280;5417;42.686;23.244;2023-04-28T09:47:37;94585.25;;;14.73;37.71
10732;BME280;5417;42.686;23.244;2023-04-28T09:50:38;94587.53;;;14.49;34.50
10732;BME280;5417;42.686;23.244;2023-04-28T10:03:06;94574.88;;;14.35;35.44
10732;BME280;5417;42.686;23.244;2023-04-28T10:11:56;94563.13;;;14.02;32.98
10732;BME280;5417;42.686;23.244;2023-04-28T10:17:42;94548.53;;;14.46;34.24
10732;BME280;5417;42.686;23.244;2023-04-28T10:20:14;94560.41;;;14.40;33.56
10732;BME280;5417;42.686;23.244;2023-04-28T10:36:48;94549.22;;;13.92;32.44
10732;BME280;5417;42.686;23.244;2023-04-28T10:46:10;94529.44;;;13.79;33.40
10732;BME280;5417;42.686;23.244;2023-04-28T10:49:03;94526.81;;;13.79;33.33
10732;BME280;5417;42.686;23.244;2023-04-28T11:15:10;94515.78;;;14.32;34.25
10732;BME280;5417;42.686;23.244;2023-04-28T11:23:27;94506.13;;;14.70;34.20
10732;BME280;5417;42.686;23.244;2023-04-28T11:25:55;94510.91;;;14.74;33.28
10732;BME280;5417;42.686;23.244;2023-04-28T11:28:22;94505.22;;;14.51;33.36
10732;BME280;5417;42.686;23.244;2023-04-28T11:30:50;94506.50;;;14.47;33.11
10732;BME280;5417;42.686;23.244;2023-04-28T11:33:17;94495.44;;;14.53;33.86
10732;BME280;5417;42.686;23.244;2023-04-28T11:42:33;94475.88;;;14.93;29.97
10732;BME280;5417;42.686;23.244;2023-04-28T11:51:40;94475.97;;;15.37;30.27
10732;BME280;5417;42.686;23.244;2023-04-28T11:54:29;94480.34;;;15.10;30.26
10732;BME280;5417;42.686;23.244;2023-04-28T11:56:58;94476.34;;;15.24;30.69
10732;BME280;5417;42.686;23.244;2023-04-28T12:00:14;94473.91;;;15.48;31.47
10732;BME280;5417;42.686;23.244;2023-04-28T12:02:26;94467.38;;;15.53;31.03
10732;BME280;5417;42.686;23.244;2023-04-28T12:08:36;94464.03;;;15.86;31.70
10732;BME280;5417;42.686;23.244;2023-04-28T12:31:14;94433.94;;;15.72;30.26
10732;BME280;5417;42.686;23.244;2023-04-28T12:46:22;94431.16;;;15.56;30.75
10732;BME280;5417;42.686;23.244;2023-04-28T12:48:57;94428.28;;;15.59;31.17
10732;BME280;5417;42.686;23.244;2023-04-28T12:51:23;94424.22;;;15.65;31.02
10732;BME280;5417;42.686;23.244;2023-04-28T12:53:54;94412.34;;;15.35;31.81
10732;BME280;5417;42.686;23.244;2023-04-28T12:56:23;94422.81;;;15.09;31.92
10732;BME280;5417;42.686;23.244;2023-04-28T12:58:49;94419.44;;;15.17;32.46
10732;BME280;5417;42.686;23.244;2023-04-28T13:01:16;94418.38;;;15.09;32.49
10732;BME280;5417;42.686;23.244;2023-04-28T13:07:06;94406.09;;;15.10;33.30
10732;BME280;5417;42.686;23.244;2023-04-28T13:09:56;94407.50;;;15.22;32.15
10732;BME280;5417;42.686;23.244;2023-04-28T13:16:03;94390.03;;;15.31;32.58
10732;BME280;5417;42.686;23.244;2023-04-28T13:18:30;94393.00;;;15.36;32.37
10732;BME280;5417;42.686;23.244;2023-04-28T13:27:35;94395.25;;;15.57;32.48
10732;BME280;5417;42.686;23.244;2023-04-28T13:30:03;94386.28;;;15.59;32.43
10732;BME280;5417;42.686;23.244;2023-04-28T13:32:30;94397.41;;;15.79;32.46
10732;BME280;5417;42.686;23.244;2023-04-28T13:38:19;94396.09;;;15.57;31.85
10732;BME280;5417;42.686;23.244;2023-04-28T13:40:46;94391.53;;;15.59;32.82
10732;BME280;5417;42.686;23.244;2023-04-28T13:53:20;94371.75;;;15.65;31.78
10732;BME280;5417;42.686;23.244;2023-04-28T14:02:02;94369.44;;;15.62;32.30
10732;BME280;5417;42.686;23.244;2023-04-28T14:04:29;94368.09;;;15.58;31.47
10732;BME280;5417;42.686;23.244;2023-04-28T14:07:26;94356.72;;;15.57;32.89
10732;BME280;5417;42.686;23.244;2023-04-28T14:09:55;94370.13;;;15.64;33.04
10732;BME280;5417;42.686;23.244;2023-04-28T14:15:29;94368.34;;;15.72;31.64
10732;BME280;5417;42.686;23.244;2023-04-28T14:24:35;94361.97;;;16.17;30.80
10732;BME280;5417;42.686;23.244;2023-04-28T14:27:03;94344.91;;;16.13;31.13
10732;BME280;5417;42.686;23.244;2023-04-28T14:32:48;94355.94;;;15.83;32.46
10732;BME280;5417;42.686;23.244;2023-04-28T14:35:16;94349.31;;;15.70;31.59
10732;BME280;5417;42.686;23.244;2023-04-28T14:38:06;94351.75;;;15.64;32.09
10732;BME280;5417;42.686;23.244;2023-04-28T14:40:33;94352.34;;;15.58;31.32
10732;BME280;5417;42.686;23.244;2023-04-28T14:43:01;94339.44;;;15.64;31.93
10732;BME280;5417;42.686;23.244;2023-04-28T14:45:28;94341.78;;;15.75;32.28
10732;BME280;5417;42.686;23.244;2023-04-28T14:48:50;94339.53;;;15.89;32.78
10732;BME280;5417;42.686;23.244;2023-04-28T14:51:07;94339.88;;;15.86;32.04
10732;BME280;5417;42.686;23.244;2023-04-28T14:56:43;94338.38;;;15.83;31.92
10732;BME280;5417;42.686;23.244;2023-04-28T14:59:12;94336.53;;;15.75;32.57
10732;BME280;5417;42.686;23.244;2023-04-28T15:04:53;94340.97;;;15.49;31.87
10732;BME280;5417;42.686;23.244;2023-04-28T15:11:11;94345.53;;;15.47;31.66
10732;BME280;5417;42.686;23.244;2023-04-28T15:13:49;94341.84;;;15.58;31.78
10732;BME280;5417;42.686;23.244;2023-04-28T15:16:32;94343.91;;;15.72;32.39
10732;BME280;5417;42.686;23.244;2023-04-28T15:35:49;94342.41;;;15.43;32.17
10732;BME280;5417;42.686;23.244;2023-04-28T15:38:19;94323.19;;;15.35;32.32
10732;BME280;5417;42.686;23.244;2023-04-28T15:50:51;94337.31;;;15.42;33.16
10732;BME280;5417;42.686;23.244;2023-04-28T15:53:57;94326.50;;;15.45;32.78
10732;BME280;5417;42.686;23.244;2023-04-28T15:56:24;94323.41;;;15.67;33.03
10732;BME280;5417;42.686;23.244;2023-04-28T15:58:52;94317.47;;;15.65;31.99
10732;BME280;5417;42.686;23.244;2023-04-28T16:04:53;94325.72;;;15.53;32.32
10732;BME280;5417;42.686;23.244;2023-04-28T16:07:21;94321.88;;;15.39;31.64
10732;BME280;5417;42.686;23.244;2023-04-28T16:09:48;94314.19;;;15.37;32.70
10732;BME280;5417;42.686;23.244;2023-04-28T16:12:40;94323.41;;;15.50;32.13
10732;BME280;5417;42.686;23.244;2023-04-28T16:15:09;94316.50;;;15.40;32.79
10732;BME280;5417;42.686;23.244;2023-04-28T16:21:04;94328.66;;;15.15;32.50
10732;BME280;5417;42.686;23.244;2023-04-28T16:23:33;94326.19;;;15.14;32.94
10732;BME280;5417;42.686;23.244;2023-04-28T16:34:19;94329.13;;;14.93;32.68
10732;BME280;5417;42.686;23.244;2023-04-28T16:36:46;94323.06;;;14.93;33.03
10732;BME280;5417;42.686;23.244;2023-04-28T16:39:14;94327.38;;;15.02;32.89
10732;BME280;5417;42.686;23.244;2023-04-28T16:42:19;94326.41;;;15.03;33.18
10732;BME280;5417;42.686;23.244;2023-04-28T16:45:38;94333.38;;;15.12;32.43
10732;BME280;5417;42.686;23.244;2023-04-28T16:48:06;94330.09;;;15.10;33.18
10732;BME280;5417;42.686;23.244;2023-04-28T16:53:33;94332.91;;;15.17;33.64
10732;BME280;5417;42.686;23.244;2023-04-28T16:53:58;94337.69;;;15.21;33.17
10732;BME280;5417;42.686;23.244;2023-04-28T16:56:27;94329.25;;;15.09;33.87
10732;BME280;5417;42.686;23.244;2023-04-28T16:59:02;94338.06;;;15.08;34.37
10732;BME280;5417;42.686;23.244;2023-04-28T17:02:28;94341.81;;;15.06;34.58
10732;BME280;5417;42.686;23.244;2023-04-28T17:04:40;94346.03;;;14.99;34.93
10732;BME280;5417;42.686;23.244;2023-04-28T17:07:07;94349.78;;;14.96;35.07
10732;BME280;5417;42.686;23.244;2023-04-28T17:09:34;94341.56;;;14.91;35.04
10732;BME280;5417;42.686;23.244;2023-04-28T17:12:32;94354.81;;;14.90;35.39
10732;BME280;5417;42.686;23.244;2023-04-28T17:14:59;94356.09;;;14.86;35.20
10732;BME280;5417;42.686;23.244;2023-04-28T17:17:51;94364.25;;;14.82;35.57
10732;BME280;5417;42.686;23.244;2023-04-28T17:23:32;94365.47;;;14.70;35.14
10732;BME280;5417;42.686;23.244;2023-04-28T17:26:20;94371.00;;;14.67;34.88
10732;BME280;5417;42.686;23.244;2023-04-28T17:29:06;94362.63;;;14.64;35.23
10732;BME280;5417;42.686;23.244;2023-04-28T17:31:33;94370.78;;;14.61;35.34
10732;BME280;5417;42.686;23.244;2023-04-28T17:46:41;94387.34;;;14.34;36.82
10732;BME280;5417;42.686;23.244;2023-04-28T17:53:04;94388.06;;;14.26;37.71
10732;BME280;5417;42.686;23.244;2023-04-28T18:02:03;94391.22;;;14.02;37.11
10732;BME280;5417;42.686;23.244;2023-04-28T18:08:00;94396.44;;;14.02;36.56
10732;BME280;5417;42.686;23.244;2023-04-28T18:10:28;94401.97;;;13.99;36.34
10732;BME280;5417;42.686;23.244;2023-04-28T18:16:24;94408.53;;;13.85;36.07
10732;BME280;5417;42.686;23.244;2023-04-28T18:19:10;94413.22;;;13.82;36.76
10732;BME280;5417;42.686;23.244;2023-04-28T18:22:32;94419.03;;;13.76;37.37
10732;BME280;5417;42.686;23.244;2023-04-28T18:25:46;94422.22;;;13.70;36.31
10732;BME280;5417;42.686;23.244;2023-04-28T18:28:10;94428.84;;;13.64;36.24
10732;BME280;5417;42.686;23.244;2023-04-28T18:30:37;94424.31;;;13.56;35.77
10732;BME280;5417;42.686;23.244;2023-04-28T18:43:09;94437.25;;;13.48;35.45
10732;BME280;5417;42.686;23.244;2023-04-28T18:45:38;94438.09;;;13.49;35.67
10732;BME280;5417;42.686;23.244;2023-04-28T18:49:00;94442.34;;;13.50;35.36
10732;BME280;5417;42.686;23.244;2023-04-28T18:52:13;94441.13;;;13.54;35.78
10732;BME280;5417;42.686;23.244;2023-04-28T18:54:33;94449.09;;;13.52;37.65
10732;BME280;5417;42.686;23.244;2023-04-28T18:57:00;94440.41;;;13.52;36.62
10732;BME280;5417;42.686;23.244;2023-04-28T19:02:42;94446.50;;;13.43;38.41
10732;BME280;5417;42.686;23.244;2023-04-28T19:05:09;94450.06;;;13.42;39.86
10732;BME280;5417;42.686;23.244;2023-04-28T19:08:13;94449.38;;;13.40;39.94
10732;BME280;5417;42.686;23.244;2023-04-28T19:10:56;94458.91;;;13.31;40.53
10732;BME280;5417;42.686;23.244;2023-04-28T19:13:23;94448.31;;;13.23;40.98
10732;BME280;5417;42.686;23.244;2023-04-28T19:15:53;94449.72;;;13.17;41.25
10732;BME280;5417;42.686;23.244;2023-04-28T19:21:40;94450.78;;;13.05;42.44
10732;BME280;5417;42.686;23.244;2023-04-28T19:24:07;94443.22;;;13.02;42.41
10732;BME280;5417;42.686;23.244;2023-04-28T19:26:36;94446.09;;;12.99;42.67
10732;BME280;5417;42.686;23.244;2023-04-28T19:29:04;94447.06;;;12.98;42.57
10732;BME280;5417;42.686;23.244;2023-04-28T19:35:03;94448.97;;;12.86;42.52
10732;BME280;5417;42.686;23.244;2023-04-28T19:37:53;94461.09;;;12.87;42.35
10732;BME280;5417;42.686;23.244;2023-04-28T19:40:22;94448.84;;;12.88;41.75
10732;BME280;5417;42.686;23.244;2023-04-28T19:44:16;94446.78;;;12.91;42.12
10732;BME280;5417;42.686;23.244;2023-04-28T19:47:20;94447.59;;;12.92;41.12
10732;BME280;5417;42.686;23.244;2023-04-28T19:57:18;94440.03;;;12.79;43.39
10732;BME280;5417;42.686;23.244;2023-04-28T20:06:48;94443.06;;;12.55;44.84
10732;BME280;5417;42.686;23.244;2023-04-28T20:25:27;94423.19;;;12.14;48.13
10732;BME280;5417;42.686;23.244;2023-04-28T20:34:29;94425.50;;;12.08;48.55
10732;BME280;5417;42.686;23.244;2023-04-28T20:36:57;94424.81;;;12.06;49.09
10732;BME280;5417;42.686;23.244;2023-04-28T20:51:42;94418.28;;;11.90;50.95
10732;BME280;5417;42.686;23.244;2023-04-28T20:54:38;94421.31;;;11.86;50.88
10732;BME280;5417;42.686;23.244;2023-04-28T20:57:08;94418.13;;;11.82;50.51
10732;BME280;5417;42.686;23.244;2023-04-28T20:59:35;94414.81;;;11.80;50.59
10732;BME280;5417;42.686;23.244;2023-04-28T21:12:37;94408.13;;;11.57;50.97
10732;BME280;5417;42.686;23.244;2023-04-28T21:15:07;94409.78;;;11.58;51.34
10732;BME280;5417;42.686;23.244;2023-04-28T21:17:34;94415.69;;;11.60;51.85
10732;BME280;5417;42.686;23.244;2023-04-28T21:20:01;94408.81;;;11.59;52.34
10732;BME280;5417;42.686;23.244;2023-04-28T21:23:19;94414.16;;;11.57;51.66
10732;BME280;5417;42.686;23.244;2023-04-28T21:25:44;94418.38;;;11.49;51.72
10732;BME280;5417;42.686;23.244;2023-04-28T21:28:12;94402.78;;;11.37;51.80
10732;BME280;5417;42.686;23.244;2023-04-28T21:30:39;94414.47;;;11.43;52.07
10732;BME280;5417;42.686;23.244;2023-04-28T21:33:20;94411.31;;;11.39;52.10
10732;BME280;5417;42.686;23.244;2023-04-28T21:36:23;94408.84;;;11.38;52.48
10732;BME280;5417;42.686;23.244;2023-04-28T21:38:41;94413.34;;;11.36;52.27
10732;BME280;5417;42.686;23.244;2023-04-28T21:41:18;94405.91;;;11.31;52.54
10732;BME280;5417;42.686;23.244;2023-04-28T21:43:47;94386.94;;;11.20;52.51
10732;BME280;5417;42.686;23.244;2023-04-28T21:47:38;94404.78;;;11.24;52.78
10732;BME280;5417;42.686;23.244;2023-04-28T21:49:35;94396.78;;;11.16;53.01
10732;BME280;5417;42.686;23.244;2023-04-28T21:59:04;94395.19;;;11.25;50.24
10732;BME280;5417;42.686;23.244;2023-04-28T22:01:39;94394.69;;;11.31;50.08
10732;BME280;5417;42.686;23.244;2023-04-28T22:04:07;94397.72;;;11.36;49.60
10732;BME280;5417;42.686;23.244;2023-04-28T22:06:34;94397.59;;;11.37;50.21
10732;BME280;5417;42.686;23.244;2023-04-28T22:09:15;94393.19;;;11.38;49.80
10732;BME280;5417;42.686;23.244;2023-04-28T22:11:42;94387.69;;;11.31;49.50
10732;BME280;5417;42.686;23.244;2023-04-28T22:14:10;94395.53;;;11.41;49.70
10732;BME280;5417;42.686;23.244;2023-04-28T22:16:37;94389.50;;;11.41;50.20
10732;BME280;5417;42.686;23.244;2023-04-28T22:19:35;94394.03;;;11.38;50.22
10732;BME280;5417;42.686;23.244;2023-04-28T22:22:01;94391.81;;;11.34;51.55
10732;BME280;5417;42.686;23.244;2023-04-28T22:24:28;94384.66;;;11.26;52.12
10732;BME280;5417;42.686;23.244;2023-04-28T22:26:56;94390.50;;;11.19;52.35
10732;BME280;5417;42.686;23.244;2023-04-28T22:32:44;94397.13;;;11.02;52.99
10732;BME280;5417;42.686;23.244;2023-04-28T22:35:11;94395.03;;;10.96;53.04
10732;BME280;5417;42.686;23.244;2023-04-28T22:38:37;94392.69;;;10.93;53.80